Time;durP1;ratioP1;P1;durP2;ratioP2;P2;SDS_P1;SDS_P2;PMS_P1;PMS_P2;Temp;Humidity;BMP_temperature;BMP_pressure;BME280_temperature;BME280_humidity;BME280_pressure;Samples;Min_cycle;Max_cycle;Signal;HPM_P1;HPM_P2
2021/06/17 00:01:51;;;;;;;1.20;0.50;;;11.90;99.90;;;;;;5087362;28;20380;-88
2021/06/17 00:04:18;;;;;;;0.68;0.30;;;11.90;99.90;;;;;;5090601;28;20530;-89
2021/06/17 00:06:45;;;;;;;1.70;0.50;;;12.10;99.90;;;;;;5089329;28;20383;-87
2021/06/17 00:09:12;;;;;;;2.47;0.60;;;12.30;99.90;;;;;;5090655;28;20372;-89
2021/06/17 00:11:39;;;;;;;1.25;0.40;;;12.40;99.90;;;;;;5090146;28;20435;-90
2021/06/17 00:14:09;;;;;;;0.87;0.50;;;12.60;99.90;;;;;;5092666;28;20541;-86
2021/06/17 00:16:36;;;;;;;1.30;0.50;;;12.90;99.90;;;;;;5094165;28;20379;-90
2021/06/17 00:19:03;;;;;;;2.35;0.50;;;13.60;99.90;;;;;;5089163;28;20398;-89
2021/06/17 00:21:31;;;;;;;1.23;0.30;;;14.60;99.90;;;;;;5089519;28;20480;-89
2021/06/17 00:23:57;;;;;;;0.60;0.30;;;15.10;98.50;;;;;;5089248;28;20404;-90
2021/06/17 00:26:24;;;;;;;0.45;0.30;;;14.90;98.80;;;;;;5089283;28;20403;-87
2021/06/17 00:28:51;;;;;;;0.75;0.30;;;14.60;98.70;;;;;;5089205;28;20361;-88
2021/06/17 00:31:19;;;;;;;2.22;0.50;;;14.10;99.90;;;;;;5089373;28;20874;-88
2021/06/17 00:33:46;;;;;;;1.10;0.40;;;13.70;99.90;;;;;;5089808;28;20851;-91
2021/06/17 00:36:13;;;;;;;1.55;0.45;;;13.40;99.90;;;;;;5092868;28;20446;-88
2021/06/17 00:38:39;;;;;;;1.35;0.40;;;13.30;99.90;;;;;;5089769;28;20408;-90
2021/06/17 00:41:07;;;;;;;0.82;0.38;;;13.10;99.90;;;;;;5089387;28;20414;-91
2021/06/17 00:43:34;;;;;;;1.60;0.40;;;13.10;99.90;;;;;;5090253;28;20404;-89
2021/06/17 00:46:00;;;;;;;1.35;0.40;;;13.00;99.90;;;;;;5089691;28;20380;-89
2021/06/17 00:48:27;;;;;;;1.10;0.30;;;13.00;99.90;;;;;;5088973;28;20390;-91
2021/06/17 00:51:00;;;;;;;1.20;0.20;;;13.00;99.90;;;;;;5089803;28;20403;-89
2021/06/17 00:53:30;;;;;;;1.55;0.20;;;13.10;99.90;;;;;;5089448;28;20372;-89
2021/06/17 00:55:58;;;;;;;3.72;0.45;;;13.10;99.90;;;;;;5090028;28;20384;-85
2021/06/17 00:58:26;;;;;;;0.95;0.30;;;13.10;99.90;;;;;;5088932;28;20393;-88
2021/06/17 01:00:53;;;;;;;1.70;0.20;;;13.10;99.90;;;;;;5090472;28;20384;-91
2021/06/17 01:03:21;;;;;;;1.47;0.50;;;13.10;99.90;;;;;;5092282;28;20395;-88
2021/06/17 01:05:49;;;;;;;2.55;0.30;;;13.10;99.90;;;;;;5089360;28;20372;-92
2021/06/17 01:08:48;;;;;;;1.02;0.22;;;13.20;99.10;;;;;;5089921;28;20376;-87
2021/06/17 01:11:45;;;;;;;1.55;0.38;;;13.30;99.90;;;;;;5090461;28;20441;-90
2021/06/17 01:14:14;;;;;;;1.20;0.20;;;13.30;99.70;;;;;;5092210;28;20440;-89
2021/06/17 01:16:54;;;;;;;1.95;0.30;;;13.30;98.80;;;;;;5098011;28;20380;-90
2021/06/17 01:19:43;;;;;;;2.15;0.20;;;13.30;98.40;;;;;;5096798;28;20901;-89
2021/06/17 01:22:29;;;;;;;1.35;0.30;;;13.30;97.70;;;;;;5092459;28;20415;-86
2021/06/17 01:25:40;;;;;;;0.75;0.28;;;13.30;98.40;;;;;;5098220;28;20450;-88
2021/06/17 01:28:16;;;;;;;0.80;0.20;;;13.30;98.40;;;;;;5099292;28;20442;-89
2021/06/17 01:30:55;;;;;;;0.88;0.20;;;13.30;97.70;;;;;;5099620;28;20368;-89
2021/06/17 01:33:28;;;;;;;1.55;0.17;;;13.40;97.00;;;;;;5094721;28;20732;-92
2021/06/17 01:35:59;;;;;;;2.53;0.38;;;13.30;97.90;;;;;;5093399;28;20430;-89
2021/06/17 01:38:27;;;;;;;1.65;0.20;;;13.30;98.60;;;;;;5096074;28;20376;-87
2021/06/17 01:40:55;;;;;;;0.90;0.30;;;13.40;98.20;;;;;;5095966;28;20713;-88
2021/06/17 01:43:23;;;;;;;1.80;0.40;;;13.40;96.90;;;;;;5092809;28;20532;-92
2021/06/17 01:45:51;;;;;;;1.25;0.38;;;13.50;97.10;;;;;;5093779;28;20369;-88
2021/06/17 01:48:19;;;;;;;2.28;0.63;;;13.50;97.30;;;;;;5093475;28;20364;-89
2021/06/17 01:50:47;;;;;;;1.77;0.30;;;13.50;96.90;;;;;;5093382;28;20739;-89
2021/06/17 01:53:21;;;;;;;1.63;0.30;;;13.50;96.40;;;;;;5094896;28;20504;-89
2021/06/17 01:55:50;;;;;;;1.43;0.30;;;13.50;96.60;;;;;;5093557;28;20380;-89
2021/06/17 01:58:20;;;;;;;1.77;0.32;;;13.60;96.20;;;;;;5093351;28;20408;-89
2021/06/17 02:00:48;;;;;;;1.40;0.38;;;13.60;96.10;;;;;;5089501;28;20456;-86
2021/06/17 02:03:16;;;;;;;1.53;0.30;;;13.60;97.40;;;;;;5088682;28;20392;-88
2021/06/17 02:05:44;;;;;;;1.02;0.32;;;13.70;96.40;;;;;;5091615;28;20389;-87
2021/06/17 02:08:15;;;;;;;0.90;0.20;;;13.70;96.80;;;;;;5092035;28;20388;-86
2021/06/17 02:10:42;;;;;;;2.38;0.50;;;13.80;95.30;;;;;;5091281;28;20392;-86
2021/06/17 02:13:12;;;;;;;1.50;0.30;;;13.80;95.50;;;;;;5093759;28;20392;-93
2021/06/17 02:15:42;;;;;;;2.00;0.40;;;13.90;95.90;;;;;;5098105;28;20396;-88
2021/06/17 02:18:09;;;;;;;1.55;0.35;;;13.80;95.30;;;;;;5091977;28;20402;-90
2021/06/17 02:20:40;;;;;;;0.90;0.30;;;13.90;96.20;;;;;;5093613;28;20456;-89
2021/06/17 02:23:12;;;;;;;1.45;0.30;;;13.90;94.90;;;;;;5092700;28;20871;-88
2021/06/17 02:25:40;;;;;;;1.77;0.53;;;14.00;94.70;;;;;;5090726;28;20487;-88
2021/06/17 02:28:13;;;;;;;0.75;0.30;;;14.00;94.40;;;;;;5091810;28;20419;-88
2021/06/17 02:30:43;;;;;;;2.20;0.50;;;14.00;94.80;;;;;;5093366;28;20388;-88
2021/06/17 02:33:12;;;;;;;1.03;0.40;;;14.10;95.00;;;;;;5091206;28;20842;-87
2021/06/17 02:35:43;;;;;;;1.00;0.40;;;14.10;95.40;;;;;;5093333;28;20739;-85
2021/06/17 02:38:14;;;;;;;2.65;0.40;;;14.20;96.50;;;;;;5092038;28;20411;-88
2021/06/17 02:40:47;;;;;;;4.45;0.57;;;14.20;95.10;;;;;;5094912;28;20492;-88
2021/06/17 02:43:21;;;;;;;1.17;0.40;;;14.30;94.40;;;;;;5093368;28;20403;-88
2021/06/17 02:45:50;;;;;;;1.52;0.40;;;14.30;94.20;;;;;;5078748;28;20430;-92
2021/06/17 02:48:18;;;;;;;4.15;0.50;;;14.30;94.40;;;;;;5091280;28;20372;-88
2021/06/17 02:50:45;;;;;;;0.77;0.40;;;14.40;94.00;;;;;;5090914;28;20404;-88
2021/06/17 02:53:13;;;;;;;4.00;0.40;;;14.40;93.90;;;;;;5091767;28;20364;-87
2021/06/17 02:55:41;;;;;;;1.38;0.35;;;14.40;93.00;;;;;;5092097;28;20939;-89
2021/06/17 02:58:47;;;;;;;1.30;0.40;;;14.40;92.70;;;;;;5091507;28;20371;-92
2021/06/17 03:01:42;;;;;;;0.93;0.40;;;14.40;93.50;;;;;;5093676;28;20392;-89
2021/06/17 03:04:41;;;;;;;0.90;0.50;;;14.40;93.30;;;;;;5092537;28;20404;-90
2021/06/17 03:07:17;;;;;;;0.85;0.30;;;14.40;92.60;;;;;;5081925;28;20423;-91
2021/06/17 03:09:51;;;;;;;2.92;0.47;;;14.40;93.10;;;;;;5093698;28;20373;-92
2021/06/17 03:12:24;;;;;;;1.13;0.30;;;14.50;93.80;;;;;;5094320;28;20379;-90
2021/06/17 03:14:54;;;;;;;1.20;0.25;;;14.40;92.90;;;;;;5093915;28;20384;-89
2021/06/17 03:17:24;;;;;;;2.58;0.40;;;14.40;92.90;;;;;;5092568;28;20377;-88
2021/06/17 03:19:55;;;;;;;1.38;0.40;;;14.40;92.40;;;;;;5090653;28;20445;-92
2021/06/17 03:22:26;;;;;;;2.60;0.40;;;14.40;92.70;;;;;;5091356;28;20770;-88
2021/06/17 03:24:57;;;;;;;2.53;0.30;;;14.40;92.60;;;;;;5090347;28;20428;-88
2021/06/17 03:27:25;;;;;;;1.98;0.50;;;14.40;92.50;;;;;;5090785;28;20377;-89
2021/06/17 03:29:53;;;;;;;0.95;0.40;;;14.50;93.70;;;;;;5090795;28;20361;-90
2021/06/17 03:32:22;;;;;;;1.57;0.40;;;14.50;92.60;;;;;;5091380;28;20372;-90
2021/06/17 03:34:51;;;;;;;2.22;0.32;;;14.50;92.40;;;;;;5090241;28;20403;-90
2021/06/17 03:37:20;;;;;;;2.33;0.53;;;14.50;92.30;;;;;;5089356;28;20380;-89
2021/06/17 03:39:49;;;;;;;1.40;0.20;;;14.50;92.00;;;;;;5089211;28;20391;-90
2021/06/17 03:42:17;;;;;;;1.20;0.20;;;14.50;92.40;;;;;;5091142;28;20831;-87
2021/06/17 03:44:45;;;;;;;0.93;0.40;;;14.50;91.50;;;;;;5091198;28;20491;-90
2021/06/17 03:47:14;;;;;;;2.35;0.30;;;14.60;91.40;;;;;;5090946;28;20388;-89
2021/06/17 03:49:44;;;;;;;2.07;0.50;;;14.50;92.50;;;;;;5091122;28;20459;-87
2021/06/17 03:52:17;;;;;;;0.70;0.22;;;14.60;92.60;;;;;;5091117;28;20376;-89
2021/06/17 03:54:45;;;;;;;1.00;0.20;;;14.60;92.40;;;;;;5090725;28;20739;-88
2021/06/17 03:57:12;;;;;;;2.10;0.40;;;14.70;92.40;;;;;;5090825;28;20376;-88
2021/06/17 03:59:42;;;;;;;1.83;0.30;;;14.60;92.80;;;;;;5089926;28;20400;-89
2021/06/17 04:02:11;;;;;;;2.80;0.30;;;14.60;92.60;;;;;;5090342;28;20472;-86
2021/06/17 04:04:39;;;;;;;1.85;0.35;;;14.60;92.00;;;;;;5089108;28;20445;-89
2021/06/17 04:07:10;;;;;;;2.05;0.50;;;14.60;92.90;;;;;;5108593;28;20393;-87
2021/06/17 04:09:39;;;;;;;0.30;0.20;;;14.50;92.60;;;;;;5094075;28;20373;-90
2021/06/17 04:12:16;;;;;;;0.95;0.20;;;14.50;92.90;;;;;;5089986;28;20418;-90
2021/06/17 04:14:48;;;;;;;1.08;0.40;;;14.60;93.30;;;;;;5088971;28;20446;-90
2021/06/17 04:17:39;;;;;;;1.00;0.20;;;14.70;93.10;;;;;;5089307;28;20380;-92
2021/06/17 04:20:11;;;;;;;0.85;0.30;;;14.60;93.60;;;;;;5098435;28;20378;-87
2021/06/17 04:22:44;;;;;;;2.20;0.25;;;14.70;94.30;;;;;;5090188;28;20372;-88
2021/06/17 04:25:12;;;;;;;0.65;0.20;;;14.70;92.80;;;;;;5089119;28;20404;-88
2021/06/17 04:27:43;;;;;;;1.80;0.30;;;14.70;93.00;;;;;;5089463;28;20373;-86
2021/06/17 04:30:11;;;;;;;2.35;0.57;;;14.70;92.80;;;;;;5089281;28;20384;-88
2021/06/17 04:32:44;;;;;;;0.90;0.20;;;14.70;92.40;;;;;;5089496;28;20387;-89
2021/06/17 04:35:13;;;;;;;1.58;0.30;;;14.70;92.60;;;;;;5089187;28;20392;-93
2021/06/17 04:37:40;;;;;;;1.40;0.30;;;14.70;93.10;;;;;;5090389;28;20415;-88
2021/06/17 04:40:09;;;;;;;1.95;0.40;;;14.50;92.60;;;;;;5094540;28;20387;-89
2021/06/17 04:42:36;;;;;;;1.08;0.40;;;14.50;93.10;;;;;;5087950;28;20389;-91
2021/06/17 04:45:04;;;;;;;1.00;0.28;;;14.50;93.30;;;;;;5084304;28;20382;-90
2021/06/17 04:47:31;;;;;;;3.00;0.35;;;14.40;93.30;;;;;;5092216;28;20871;-89
2021/06/17 04:49:58;;;;;;;1.15;0.30;;;14.30;93.60;;;;;;5073826;28;20378;-90
2021/06/17 04:52:31;;;;;;;0.73;0.28;;;14.30;94.00;;;;;;5074639;28;20726;-86
2021/06/17 04:54:58;;;;;;;1.55;0.28;;;14.20;94.10;;;;;;5089496;28;20391;-87
2021/06/17 04:57:25;;;;;;;4.30;0.80;;;14.10;93.80;;;;;;5094270;28;20426;-92
2021/06/17 04:59:52;;;;;;;1.30;0.30;;;14.00;94.10;;;;;;5083510;28;20382;-90
2021/06/17 05:02:19;;;;;;;0.70;0.20;;;13.80;94.50;;;;;;5094381;28;20392;-91
2021/06/17 05:04:46;;;;;;;0.35;0.30;;;13.60;94.80;;;;;;5095362;28;20461;-91
2021/06/17 05:12:29;;;;;;;1.20;0.30;;;13.30;96.00;;;;;;5091898;28;20866;-89
2021/06/17 05:14:56;;;;;;;1.77;0.30;;;13.20;96.30;;;;;;5093350;28;20380;-88
2021/06/17 05:17:23;;;;;;;1.40;0.47;;;13.10;96.70;;;;;;5093076;28;20464;-92
2021/06/17 05:19:50;;;;;;;1.30;0.20;;;13.00;97.00;;;;;;5093444;28;20883;-92
2021/06/17 05:22:17;;;;;;;1.58;0.30;;;13.00;96.80;;;;;;5090741;28;20428;-88
2021/06/17 05:24:44;;;;;;;1.40;0.20;;;12.90;97.20;;;;;;5092148;28;20456;-88
2021/06/17 05:27:11;;;;;;;0.80;0.25;;;12.90;97.70;;;;;;5092597;28;20387;-91
2021/06/17 05:29:38;;;;;;;1.08;0.20;;;12.90;97.50;;;;;;5096212;28;20451;-93
2021/06/17 05:32:06;;;;;;;0.40;0.20;;;12.90;97.60;;;;;;5073723;28;20459;-89
2021/06/17 05:34:33;;;;;;;1.67;0.23;;;12.80;97.80;;;;;;5078218;28;20392;-90
2021/06/17 05:37:00;;;;;;;0.95;0.30;;;12.80;97.60;;;;;;5094113;28;20373;-89
2021/06/17 05:39:27;;;;;;;0.80;0.20;;;12.80;97.60;;;;;;5093607;28;20392;-92
2021/06/17 05:41:54;;;;;;;1.33;0.22;;;12.80;98.20;;;;;;5086663;28;20441;-88
2021/06/17 05:44:21;;;;;;;1.30;0.30;;;12.70;97.70;;;;;;5093192;28;20405;-89
2021/06/17 05:46:48;;;;;;;1.75;0.35;;;12.70;98.30;;;;;;5103490;28;20494;-89
2021/06/17 05:49:15;;;;;;;1.65;0.10;;;12.70;98.30;;;;;;5092789;28;20755;-92
2021/06/17 05:51:42;;;;;;;1.88;0.30;;;12.60;98.50;;;;;;5090374;28;20392;-89
2021/06/17 05:54:09;;;;;;;0.82;0.28;;;12.60;98.70;;;;;;5091696;28;20809;-90
2021/06/17 05:56:36;;;;;;;1.38;0.20;;;12.70;98.10;;;;;;5093969;28;20388;-94
2021/06/17 05:59:03;;;;;;;1.55;0.17;;;12.60;98.10;;;;;;5095723;28;20400;-94
2021/06/17 06:01:30;;;;;;;1.73;0.30;;;12.60;99.00;;;;;;5094908;28;20391;-95
2021/06/17 06:03:57;;;;;;;0.47;0.20;;;12.50;98.70;;;;;;5095428;28;20766;-91
2021/06/17 06:06:24;;;;;;;1.10;0.30;;;12.50;98.80;;;;;;5095862;28;20388;-90
2021/06/17 06:08:51;;;;;;;1.00;0.30;;;12.50;98.90;;;;;;5095591;28;20379;-92
2021/06/17 06:11:19;;;;;;;0.47;0.40;;;12.50;99.10;;;;;;5094669;28;20927;-89
2021/06/17 06:13:46;;;;;;;0.50;0.20;;;12.40;99.30;;;;;;5093071;28;20380;-92
2021/06/17 06:16:14;;;;;;;0.60;0.30;;;12.30;99.00;;;;;;5094691;28;20381;-95
2021/06/17 06:18:40;;;;;;;3.50;0.30;;;12.40;99.20;;;;;;5093395;28;20381;-91
2021/06/17 06:21:07;;;;;;;0.30;0.20;;;12.40;99.20;;;;;;5092505;28;20456;-88
2021/06/17 06:23:35;;;;;;;1.20;0.40;;;12.30;99.70;;;;;;5094290;28;20471;-91
2021/06/17 06:26:02;;;;;;;3.05;0.30;;;12.30;99.80;;;;;;5090908;28;20376;-89
2021/06/17 06:28:31;;;;;;;0.97;0.40;;;12.20;99.70;;;;;;5095157;28;20454;-91
2021/06/17 06:30:58;;;;;;;2.23;0.30;;;12.30;99.90;;;;;;5093469;28;20392;-93
2021/06/17 06:33:25;;;;;;;2.50;0.50;;;12.20;99.90;;;;;;5094175;28;20407;-92
2021/06/17 06:35:52;;;;;;;1.67;0.70;;;12.20;99.90;;;;;;5094385;28;20377;-91
2021/06/17 06:38:19;;;;;;;0.80;0.40;;;12.10;99.90;;;;;;5098340;28;20381;-88
2021/06/17 06:40:46;;;;;;;0.60;0.30;;;12.10;99.90;;;;;;5102254;28;20388;-95
2021/06/17 06:43:15;;;;;;;0.50;0.30;;;12.00;99.90;;;;;;5097033;28;20376;-94
2021/06/17 06:45:43;;;;;;;0.80;0.43;;;12.10;99.90;;;;;;5098036;28;20395;-92
2021/06/17 06:48:10;;;;;;;1.25;0.50;;;12.00;99.90;;;;;;5096430;28;20396;-95
2021/06/17 06:50:38;;;;;;;0.90;0.30;;;12.00;99.90;;;;;;5095320;28;20463;-92
2021/06/17 06:53:05;;;;;;;1.00;0.30;;;12.00;99.90;;;;;;5096351;28;20376;-91
2021/06/17 06:55:32;;;;;;;1.70;0.35;;;12.00;99.90;;;;;;5096397;28;20365;-88
2021/06/17 06:57:59;;;;;;;0.85;0.30;;;12.00;99.90;;;;;;5098654;28;20360;-92
2021/06/17 07:00:26;;;;;;;0.90;0.20;;;12.00;99.90;;;;;;5108133;28;20495;-89
2021/06/17 07:02:53;;;;;;;1.10;0.50;;;11.90;99.90;;;;;;5114199;28;20386;-91
2021/06/17 07:05:20;;;;;;;1.70;0.50;;;11.90;99.90;;;;;;5118666;28;20430;-89
2021/06/17 07:07:47;;;;;;;1.40;0.40;;;11.90;99.90;;;;;;5107302;28;20384;-90
2021/06/17 07:10:14;;;;;;;1.17;0.40;;;11.80;99.90;;;;;;5094857;28;20364;-93
2021/06/17 07:12:41;;;;;;;0.80;0.40;;;11.80;99.90;;;;;;5094280;28;20369;-92
2021/06/17 07:15:09;;;;;;;1.33;0.65;;;11.80;99.90;;;;;;5092605;28;20402;-91
2021/06/17 07:17:36;;;;;;;0.65;0.47;;;11.80;99.90;;;;;;5096536;28;20380;-91
2021/06/17 07:20:04;;;;;;;0.93;0.20;;;11.80;99.90;;;;;;5105345;28;20422;-94
2021/06/17 07:22:32;;;;;;;1.70;0.38;;;11.90;99.90;;;;;;5092103;28;20388;-95
2021/06/17 07:24:59;;;;;;;2.22;0.30;;;11.90;99.90;;;;;;5093536;28;20840;-89
2021/06/17 07:27:26;;;;;;;0.30;0.20;;;11.80;99.90;;;;;;5092436;28;20456;-92
2021/06/17 07:29:53;;;;;;;2.38;0.50;;;11.90;99.90;;;;;;5091922;28;20457;-90
2021/06/17 07:32:20;;;;;;;1.80;0.40;;;11.90;99.90;;;;;;5087938;28;20399;-92
2021/06/17 07:34:47;;;;;;;2.10;0.57;;;11.80;99.90;;;;;;5078068;28;20490;-90
2021/06/17 07:37:15;;;;;;;1.20;0.32;;;11.80;99.90;;;;;;5071340;28;20394;-91
2021/06/17 07:39:43;;;;;;;1.80;1.40;;;11.80;99.90;;;;;;5079384;28;20436;-91
2021/06/17 07:42:10;;;;;;;2.58;1.30;;;11.70;99.90;;;;;;5084728;28;20406;-90
2021/06/17 07:44:38;;;;;;;3.15;2.90;;;11.70;99.90;;;;;;5086163;28;20412;-85
2021/06/17 07:47:05;;;;;;;2.03;1.30;;;11.70;99.90;;;;;;5090658;28;20380;-88
2021/06/17 07:49:32;;;;;;;1.60;0.90;;;11.70;99.90;;;;;;5092125;28;20843;-93
2021/06/17 07:51:59;;;;;;;2.00;1.52;;;11.80;99.90;;;;;;5091799;28;20875;-92
2021/06/17 07:54:27;;;;;;;0.70;0.70;;;11.70;99.90;;;;;;5092254;28;20404;-95
2021/06/17 07:56:57;;;;;;;2.10;0.40;;;11.70;99.90;;;;;;5092376;28;20392;-89
2021/06/17 07:59:25;;;;;;;1.00;0.35;;;11.60;99.90;;;;;;5094385;28;20384;-95
2021/06/17 08:01:52;;;;;;;1.10;0.25;;;11.60;99.90;;;;;;5091463;28;20388;-93
2021/06/17 08:04:19;;;;;;;1.58;0.30;;;11.60;99.90;;;;;;5087329;28;20500;-92
2021/06/17 08:06:46;;;;;;;1.40;0.40;;;11.60;99.90;;;;;;5081881;28;20382;-91
2021/06/17 08:09:19;;;;;;;0.52;0.40;;;11.60;99.90;;;;;;5091060;28;20403;-92
2021/06/17 08:11:48;;;;;;;2.25;0.60;;;11.50;99.90;;;;;;5094280;28;20406;-93
2021/06/17 08:14:29;;;;;;;1.45;0.43;;;11.40;99.90;;;;;;5092397;28;20508;-93
2021/06/17 08:16:57;;;;;;;2.28;0.60;;;11.40;99.90;;;;;;5087695;28;20399;-93
2021/06/17 08:19:31;;;;;;;0.90;0.60;;;11.30;99.90;;;;;;5092190;28;20392;-91
2021/06/17 08:22:08;;;;;;;2.67;0.70;;;11.20;99.90;;;;;;5086747;28;20449;-92
2021/06/17 08:24:45;;;;;;;2.90;0.70;;;11.20;99.90;;;;;;5088174;28;20500;-95
2021/06/17 08:27:12;;;;;;;2.70;0.70;;;11.20;99.90;;;;;;5097130;28;20372;-92
2021/06/17 08:29:39;;;;;;;1.52;0.90;;;11.20;99.90;;;;;;5097426;28;20452;-93
2021/06/17 08:32:07;;;;;;;1.97;0.70;;;11.20;99.90;;;;;;5098828;28;20468;-87
2021/06/17 08:34:34;;;;;;;1.55;0.70;;;11.20;99.90;;;;;;5089661;28;20443;-89
2021/06/17 08:37:04;;;;;;;1.00;0.52;;;11.20;99.90;;;;;;5084692;28;20424;-95
2021/06/17 08:39:32;;;;;;;6.17;0.90;;;11.20;99.90;;;;;;5086728;28;20406;-94
2021/06/17 08:42:00;;;;;;;1.60;0.82;;;11.10;99.90;;;;;;5087636;28;20495;-94
2021/06/17 08:44:29;;;;;;;28.00;24.73;;;11.10;99.90;;;;;;5096229;28;20471;-95
2021/06/17 08:46:59;;;;;;;2.08;1.00;;;11.10;99.90;;;;;;5086578;28;20388;-94
2021/06/17 08:49:27;;;;;;;0.80;0.60;;;11.00;99.90;;;;;;5096252;28;20447;-90
2021/06/17 08:51:58;;;;;;;1.45;1.10;;;11.00;99.90;;;;;;5089650;28;20799;-94
2021/06/17 08:54:26;;;;;;;1.20;0.60;;;10.90;99.90;;;;;;5091858;28;20396;-89
2021/06/17 08:56:54;;;;;;;1.92;0.60;;;11.00;99.90;;;;;;5076815;28;20405;-93
2021/06/17 08:59:32;;;;;;;1.95;1.38;;;11.00;99.90;;;;;;5095177;28;20380;-94
2021/06/17 09:02:02;;;;;;;1.50;0.40;;;11.00;99.90;;;;;;5092613;28;20402;-93
2021/06/17 09:04:30;;;;;;;1.50;0.40;;;11.00;99.90;;;;;;5080009;28;20409;-89
2021/06/17 09:07:09;;;;;;;1.10;0.50;;;10.90;99.90;;;;;;5076948;28;20822;-91
2021/06/17 09:09:47;;;;;;;0.50;0.50;;;11.00;99.90;;;;;;5076799;28;20378;-89
2021/06/17 09:12:18;;;;;;;2.60;0.77;;;11.00;99.90;;;;;;5075055;28;20414;-89
2021/06/17 09:14:55;;;;;;;1.15;0.43;;;10.90;99.90;;;;;;5080884;28;20895;-91
2021/06/17 09:17:23;;;;;;;0.80;0.50;;;11.00;99.90;;;;;;5085295;28;20397;-87
2021/06/17 09:19:52;;;;;;;0.70;0.40;;;11.00;99.90;;;;;;5098489;28;20397;-93
2021/06/17 09:22:22;;;;;;;1.65;0.60;;;11.00;99.90;;;;;;5074098;28;20760;-92
2021/06/17 09:24:54;;;;;;;1.55;0.60;;;10.90;99.90;;;;;;5076716;28;21918;-92
2021/06/17 09:27:39;;;;;;;1.60;0.70;;;10.90;99.90;;;;;;5075249;28;20828;-90
2021/06/17 09:30:12;;;;;;;0.95;0.60;;;10.80;99.90;;;;;;5088657;28;20380;-87
2021/06/17 09:32:45;;;;;;;1.73;0.80;;;10.80;99.90;;;;;;5077127;28;20386;-88
2021/06/17 09:35:55;;;;;;;3.45;0.75;;;10.90;99.90;;;;;;5078618;28;20387;-87
2021/06/17 09:38:24;;;;;;;1.30;0.90;;;10.80;99.90;;;;;;5073600;28;20846;-88
2021/06/17 09:40:52;;;;;;;2.28;0.90;;;10.70;99.90;;;;;;5079665;28;20493;-90
2021/06/17 09:43:32;;;;;;;1.35;0.88;;;10.60;99.90;;;;;;5073804;28;20400;-87
2021/06/17 09:46:06;;;;;;;2.10;0.70;;;10.60;99.90;;;;;;5077508;28;20440;-89
2021/06/17 09:48:36;;;;;;;1.15;0.65;;;10.50;99.90;;;;;;5081827;28;20380;-88
2021/06/17 09:51:26;;;;;;;0.65;0.65;;;10.50;99.90;;;;;;5082261;28;20937;-88
2021/06/17 09:54:06;;;;;;;0.95;0.50;;;10.50;99.90;;;;;;5080342;28;20388;-89
2021/06/17 09:56:35;;;;;;;2.40;0.47;;;10.50;99.90;;;;;;5076579;28;20388;-88
2021/06/17 09:59:09;;;;;;;1.48;0.55;;;10.50;99.90;;;;;;5075753;28;20401;-87
2021/06/17 10:01:45;;;;;;;0.85;0.52;;;10.50;99.90;;;;;;5087369;28;20863;-88
2021/06/17 10:04:14;;;;;;;1.60;0.50;;;10.50;99.90;;;;;;5088986;28;20400;-87
2021/06/17 10:06:44;;;;;;;1.75;0.50;;;10.40;99.90;;;;;;5093906;28;20736;-88
2021/06/17 10:09:18;;;;;;;2.40;0.60;;;10.50;99.90;;;;;;5084179;28;20403;-86
2021/06/17 10:11:47;;;;;;;1.95;0.70;;;10.50;99.90;;;;;;5078753;28;20388;-86
2021/06/17 10:14:14;;;;;;;1.20;0.60;;;10.50;99.90;;;;;;5088127;28;20398;-88
2021/06/17 10:16:45;;;;;;;0.80;0.50;;;10.50;99.90;;;;;;5087288;28;21205;-89
2021/06/17 10:19:19;;;;;;;1.50;0.55;;;10.50;99.90;;;;;;5074476;28;20439;-89
2021/06/17 10:21:47;;;;;;;0.80;0.50;;;10.60;99.90;;;;;;5070505;28;20394;-89
2021/06/17 10:24:19;;;;;;;1.90;0.60;;;10.60;99.90;;;;;;5079390;28;20465;-90
2021/06/17 10:26:52;;;;;;;1.45;0.40;;;10.60;99.90;;;;;;5071595;28;20395;-89
2021/06/17 10:29:28;;;;;;;0.38;0.30;;;10.70;99.90;;;;;;5088679;28;20395;-89
2021/06/17 10:31:56;;;;;;;0.80;0.30;;;10.70;99.90;;;;;;5084686;28;20397;-87
2021/06/17 10:34:23;;;;;;;0.73;0.30;;;10.70;99.90;;;;;;5070020;28;20433;-88
2021/06/17 10:37:26;;;;;;;0.90;0.32;;;10.70;99.90;;;;;;5075014;28;20845;-90
2021/06/17 10:40:04;;;;;;;0.50;0.40;;;10.70;99.90;;;;;;5085527;28;20388;-88
2021/06/17 10:42:55;;;;;;;0.90;0.43;;;10.80;99.90;;;;;;5085217;28;20502;-89
2021/06/17 10:45:44;;;;;;;1.30;0.40;;;10.80;99.90;;;;;;5069026;28;21162;-88
2021/06/17 10:48:25;;;;;;;0.70;0.40;;;10.70;99.90;;;;;;5077883;28;20398;-88
2021/06/17 10:51:06;;;;;;;0.40;0.40;;;10.80;99.90;;;;;;5080275;28;20446;-90
2021/06/17 10:53:39;;;;;;;0.70;0.22;;;10.80;99.90;;;;;;5087723;28;20380;-90
2021/06/17 10:56:22;;;;;;;0.60;0.20;;;10.80;99.90;;;;;;5084471;28;20472;-89
2021/06/17 10:58:50;;;;;;;0.70;0.30;;;10.70;99.90;;;;;;5083723;28;20479;-85
2021/06/17 11:01:30;;;;;;;1.30;0.50;;;10.70;99.90;;;;;;5077726;28;20482;-88
2021/06/17 11:04:08;;;;;;;1.00;0.30;;;10.70;99.90;;;;;;5080751;28;20404;-88
2021/06/17 11:07:04;;;;;;;0.75;0.20;;;10.60;99.90;;;;;;5083041;28;20401;-88
2021/06/17 11:09:49;;;;;;;0.75;0.30;;;10.60;99.90;;;;;;5062324;28;20962;-86
2021/06/17 11:12:19;;;;;;;0.32;0.20;;;10.70;99.90;;;;;;5078270;28;20892;-91
2021/06/17 11:14:49;;;;;;;0.82;0.30;;;10.70;99.90;;;;;;5083928;28;20406;-87
2021/06/17 11:17:34;;;;;;;0.50;0.28;;;10.70;99.90;;;;;;5086209;28;20491;-88
2021/06/17 11:20:05;;;;;;;0.50;0.33;;;10.70;99.90;;;;;;5088963;28;20408;-88
2021/06/17 11:22:40;;;;;;;0.40;0.40;;;10.70;99.90;;;;;;5087259;28;20383;-88
2021/06/17 11:25:29;;;;;;;0.40;0.40;;;10.60;99.90;;;;;;5087964;28;20404;-86
2021/06/17 11:27:59;;;;;;;0.88;0.35;;;10.60;99.90;;;;;;5083193;28;21261;-87
2021/06/17 11:30:41;;;;;;;0.63;0.40;;;10.50;99.90;;;;;;5099494;28;20416;-90
2021/06/17 11:33:18;;;;;;;0.70;0.40;;;10.50;99.90;;;;;;5094540;28;20441;-90
2021/06/17 11:35:51;;;;;;;0.80;0.40;;;10.50;99.90;;;;;;5094984;28;20399;-90
2021/06/17 11:38:28;;;;;;;0.52;0.20;;;10.40;99.90;;;;;;5092922;28;20399;-94
2021/06/17 11:40:55;;;;;;;0.50;0.30;;;10.30;99.90;;;;;;5089571;28;20747;-92
2021/06/17 11:43:26;;;;;;;0.25;0.20;;;10.30;99.90;;;;;;5091640;28;20393;-89
2021/06/17 11:45:54;;;;;;;0.40;0.20;;;10.30;99.90;;;;;;5084598;28;20463;-89
2021/06/17 11:48:26;;;;;;;0.47;0.30;;;10.30;99.90;;;;;;5090970;28;20386;-89
2021/06/17 11:50:55;;;;;;;0.63;0.40;;;10.20;99.90;;;;;;5079988;28;20388;-87
2021/06/17 11:53:27;;;;;;;0.30;0.20;;;10.20;99.90;;;;;;5084818;28;20446;-90
2021/06/17 11:55:58;;;;;;;1.13;0.40;;;10.20;99.90;;;;;;5077927;28;20386;-87
2021/06/17 11:58:34;;;;;;;0.70;0.30;;;10.20;99.90;;;;;;5075162;28;20476;-86
2021/06/17 12:01:08;;;;;;;0.35;0.20;;;10.10;99.90;;;;;;5074223;28;20541;-87
2021/06/17 12:03:35;;;;;;;0.45;0.40;;;10.10;99.90;;;;;;5088381;28;20384;-87
2021/06/17 12:06:10;;;;;;;0.93;0.30;;;10.20;99.90;;;;;;5088027;28;20879;-88
2021/06/17 12:08:40;;;;;;;0.52;0.30;;;10.20;99.90;;;;;;5081294;28;20391;-89
2021/06/17 12:11:25;;;;;;;1.50;0.30;;;10.10;99.90;;;;;;5088670;28;20443;-87
2021/06/17 12:13:53;;;;;;;0.50;0.40;;;10.10;99.90;;;;;;5088837;28;20469;-87
2021/06/17 12:16:21;;;;;;;0.90;0.40;;;10.20;99.90;;;;;;5088765;28;20376;-90
2021/06/17 12:18:48;;;;;;;0.20;0.20;;;10.10;99.90;;;;;;5088559;28;20395;-89
2021/06/17 12:21:33;;;;;;;0.30;0.30;;;10.00;99.90;;;;;;5089157;28;20894;-90
2021/06/17 12:24:01;;;;;;;0.55;0.30;;;10.00;99.90;;;;;;5076417;28;20408;-87
2021/06/17 12:26:34;;;;;;;1.65;0.30;;;9.90;99.90;;;;;;5089441;28;20453;-86
2021/06/17 12:29:13;;;;;;;0.60;0.50;;;9.90;99.90;;;;;;5088639;28;20396;-88
2021/06/17 12:31:41;;;;;;;0.30;0.30;;;9.90;99.90;;;;;;5087223;28;20472;-87
2021/06/17 12:34:16;;;;;;;0.88;0.30;;;9.90;99.90;;;;;;5089202;28;20866;-87
2021/06/17 12:36:57;;;;;;;0.28;0.20;;;9.90;99.90;;;;;;5082920;28;20476;-89
2021/06/17 12:39:24;;;;;;;0.20;0.20;;;10.00;99.90;;;;;;5088026;28;20396;-89
2021/06/17 12:41:52;;;;;;;0.20;0.20;;;10.00;99.90;;;;;;5087143;28;20403;-88
2021/06/17 12:44:38;;;;;;;0.20;0.20;;;10.00;99.90;;;;;;5082767;28;20396;-88
2021/06/17 12:47:30;;;;;;;0.35;0.25;;;10.10;99.90;;;;;;5090077;28;20403;-87
2021/06/17 12:52:40;;;;;;;0.30;0.30;;;10.20;99.90;;;;;;5079097;28;20553;-85
2021/06/17 12:55:10;;;;;;;0.40;0.20;;;10.40;99.90;;;;;;5085288;28;20871;-88
2021/06/17 12:57:37;;;;;;;0.38;0.20;;;10.30;99.90;;;;;;5085428;28;20399;-87
2021/06/17 13:00:24;;;;;;;0.60;0.20;;;10.50;99.90;;;;;;5083496;28;20403;-88
2021/06/17 13:02:53;;;;;;;0.47;0.10;;;10.50;99.90;;;;;;5082473;28;20385;-87
2021/06/17 13:05:22;;;;;;;0.43;0.30;;;10.60;99.90;;;;;;5087262;28;20400;-88
2021/06/17 13:08:21;;;;;;;0.60;0.30;;;10.50;99.90;;;;;;5068458;28;20390;-89
2021/06/17 13:10:52;;;;;;;0.20;0.20;;;10.50;99.90;;;;;;5081058;28;20396;-88
2021/06/17 13:13:25;;;;;;;0.85;0.40;;;10.50;99.90;;;;;;5086636;28;20394;-89
2021/06/17 13:15:55;;;;;;;1.50;0.20;;;10.50;99.90;;;;;;5091170;28;20384;-88
2021/06/17 13:18:23;;;;;;;0.35;0.20;;;10.40;99.90;;;;;;5090836;28;21868;-87